sensor_id;sensor_type;location;lat;lon;timestamp;pressure;altitude;pressure_sealevel;temperature;humidity
14232;BME280;7200;52.194;9.900;2023-04-02T00:00:15;100038.31;;;6.56;100.00
14232;BME280;7200;52.194;9.900;2023-04-02T00:07:43;100011.06;;;6.29;100.00
14232;BME280;7200;52.194;9.900;2023-04-02T00:10:36;100003.31;;;6.24;100.00
14232;BME280;7200;52.194;9.900;2023-04-02T00:15:34;100024.47;;;6.17;100.00
14232;BME280;7200;52.194;9.900;2023-04-02T00:18:00;100021.81;;;6.18;100.00
14232;BME280;7200;52.194;9.900;2023-04-02T00:20:27;100025.44;;;6.13;100.00
14232;BME280;7200;52.194;9.900;2023-04-02T00:22:53;100003.88;;;6.01;100.00
14232;BME280;7200;52.194;9.900;2023-04-02T00:25:20;100011.75;;;6.01;100.00
14232;BME280;7200;52.194;9.900;2023-04-02T00:27:46;100012.50;;;6.07;100.00
14232;BME280;7200;52.194;9.900;2023-04-02T00:30:13;100022.09;;;6.06;100.00
14232;BME280;7200;52.194;9.900;2023-04-02T00:32:38;99998.03;;;5.90;100.00
14232;BME280;7200;52.194;9.900;2023-04-02T00:35:11;100007.72;;;5.87;100.00
14232;BME280;7200;52.194;9.900;2023-04-02T00:37:37;100006.94;;;5.81;100.00
14232;BME280;7200;52.194;9.900;2023-04-02T00:40:27;100011.19;;;5.87;100.00
14232;BME280;7200;52.194;9.900;2023-04-02T00:42:55;99998.13;;;5.85;100.00
14232;BME280;7200;52.194;9.900;2023-04-02T00:45:27;99996.50;;;5.80;100.00
14232;BME280;7200;52.194;9.900;2023-04-02T00:47:55;100024.88;;;6.00;100.00
14232;BME280;7200;52.194;9.900;2023-04-02T00:50:26;100013.72;;;5.90;100.00
14232;BME280;7200;52.194;9.900;2023-04-02T00:52:56;100003.41;;;5.84;100.00
14232;BME280;7200;52.194;9.900;2023-04-02T00:55:39;100046.38;;;6.13;100.00
14232;BME280;7200;52.194;9.900;2023-04-02T00:58:33;99994.72;;;5.82;100.00
14232;BME280;7200;52.194;9.900;2023-04-02T01:01:00;100012.94;;;5.87;100.00
14232;BME280;7200;52.194;9.900;2023-04-02T01:03:32;99991.47;;;5.71;100.00
14232;BME280;7200;52.194;9.900;2023-04-02T01:06:15;100005.38;;;5.74;100.00
14232;BME280;7200;52.194;9.900;2023-04-02T01:08:46;100023.41;;;5.87;100.00
14232;BME280;7200;52.194;9.900;2023-04-02T01:16:34;100021.69;;;5.85;100.00
14232;BME280;7200;52.194;9.900;2023-04-02T01:19:28;100019.94;;;5.86;100.00
14232;BME280;7200;52.194;9.900;2023-04-02T01:22:27;100009.75;;;5.74;100.00
14232;BME280;7200;52.194;9.900;2023-04-02T01:24:59;100060.53;;;6.06;100.00
14232;BME280;7200;52.194;9.900;2023-04-02T01:27:31;100030.44;;;5.84;100.00
14232;BME280;7200;52.194;9.900;2023-04-02T01:29:59;99995.50;;;5.48;100.00
14232;BME280;7200;52.194;9.900;2023-04-02T01:32:27;100032.63;;;5.65;100.00
14232;BME280;7200;52.194;9.900;2023-04-02T01:34:54;100024.69;;;5.69;100.00
14232;BME280;7200;52.194;9.900;2023-04-02T01:37:41;100016.28;;;5.56;100.00
14232;BME280;7200;52.194;9.900;2023-04-02T01:42:54;100023.97;;;5.62;100.00
14232;BME280;7200;52.194;9.900;2023-04-02T01:45:22;100005.22;;;5.43;100.00
14232;BME280;7200;52.194;9.900;2023-04-02T01:47:49;100020.63;;;5.55;100.00
14232;BME280;7200;52.194;9.900;2023-04-02T01:52:45;100011.69;;;5.26;100.00
14232;BME280;7200;52.194;9.900;2023-04-02T01:55:12;100053.94;;;5.49;100.00
14232;BME280;7200;52.194;9.900;2023-04-02T01:57:42;100047.31;;;5.32;100.00
14232;BME280;7200;52.194;9.900;2023-04-02T02:00:13;100062.63;;;5.51;100.00
14232;BME280;7200;52.194;9.900;2023-04-02T02:02:40;100085.81;;;5.68;100.00
14232;BME280;7200;52.194;9.900;2023-04-02T02:05:15;100045.16;;;5.51;100.00
14232;BME280;7200;52.194;9.900;2023-04-02T02:07:41;100035.00;;;5.37;100.00
14232;BME280;7200;52.194;9.900;2023-04-02T02:10:13;100039.34;;;5.37;100.00
14232;BME280;7200;52.194;9.900;2023-04-02T02:12:40;100013.78;;;5.09;100.00
14232;BME280;7200;52.194;9.900;2023-04-02T02:15:14;100086.22;;;5.47;100.00
14232;BME280;7200;52.194;9.900;2023-04-02T02:17:40;100068.91;;;5.40;100.00
14232;BME280;7200;52.194;9.900;2023-04-02T02:20:07;100044.88;;;5.23;100.00
14232;BME280;7200;52.194;9.900;2023-04-02T02:22:36;100062.03;;;5.36;100.00
14232;BME280;7200;52.194;9.900;2023-04-02T02:25:09;100038.84;;;5.19;100.00
14232;BME280;7200;52.194;9.900;2023-04-02T02:32:54;100041.59;;;5.13;100.00
14232;BME280;7200;52.194;9.900;2023-04-02T02:35:26;100066.81;;;5.16;100.00
14232;BME280;7200;52.194;9.900;2023-04-02T02:38:14;100084.19;;;5.20;100.00
14232;BME280;7200;52.194;9.900;2023-04-02T02:40:44;100084.41;;;5.07;100.00
14232;BME280;7200;52.194;9.900;2023-04-02T02:43:13;100067.19;;;4.97;100.00
14232;BME280;7200;52.194;9.900;2023-04-02T02:45:41;100089.38;;;5.21;100.00
14232;BME280;7200;52.194;9.900;2023-04-02T02:48:12;100068.69;;;5.11;100.00
14232;BME280;7200;52.194;9.900;2023-04-02T02:50:39;100073.06;;;5.09;100.00
14232;BME280;7200;52.194;9.900;2023-04-02T02:53:15;100089.28;;;5.26;100.00
14232;BME280;7200;52.194;9.900;2023-04-02T02:55:41;100067.88;;;5.07;100.00
14232;BME280;7200;52.194;9.900;2023-04-02T02:58:13;100071.38;;;5.06;100.00
14232;BME280;7200;52.194;9.900;2023-04-02T03:00:41;100085.34;;;5.05;100.00
14232;BME280;7200;52.194;9.900;2023-04-02T03:03:10;100095.69;;;5.10;100.00
14232;BME280;7200;52.194;9.900;2023-04-02T03:05:37;100105.13;;;5.18;100.00
14232;BME280;7200;52.194;9.900;2023-04-02T03:08:05;100096.66;;;5.05;100.00
14232;BME280;7200;52.194;9.900;2023-04-02T03:10:51;100106.03;;;5.16;100.00
14232;BME280;7200;52.194;9.900;2023-04-02T03:13:28;100116.41;;;5.22;100.00
14232;BME280;7200;52.194;9.900;2023-04-02T03:16:33;100144.09;;;5.32;100.00
14232;BME280;7200;52.194;9.900;2023-04-02T03:19:08;100126.84;;;5.22;100.00
14232;BME280;7200;52.194;9.900;2023-04-02T03:21:49;100103.53;;;5.10;100.00
14232;BME280;7200;52.194;9.900;2023-04-02T03:25:15;100156.34;;;5.30;100.00
14232;BME280;7200;52.194;9.900;2023-04-02T03:27:17;100136.41;;;5.23;100.00
14232;BME280;7200;52.194;9.900;2023-04-02T03:29:51;100114.91;;;5.09;100.00
14232;BME280;7200;52.194;9.900;2023-04-02T03:32:30;100144.22;;;5.24;100.00
14232;BME280;7200;52.194;9.900;2023-04-02T03:35:02;100157.19;;;5.31;100.00
14232;BME280;7200;52.194;9.900;2023-04-02T03:37:34;100153.88;;;5.21;100.00
14232;BME280;7200;52.194;9.900;2023-04-02T03:40:17;100173.84;;;5.25;100.00
14232;BME280;7200;52.194;9.900;2023-04-02T03:42:47;100160.19;;;5.11;100.00
14232;BME280;7200;52.194;9.900;2023-04-02T03:47:54;100204.44;;;5.21;100.00
14232;BME280;7200;52.194;9.900;2023-04-02T03:50:26;100205.22;;;5.26;100.00
14232;BME280;7200;52.194;9.900;2023-04-02T03:52:56;100195.63;;;5.27;100.00
14232;BME280;7200;52.194;9.900;2023-04-02T03:55:28;100197.19;;;5.37;100.00
14232;BME280;7200;52.194;9.900;2023-04-02T03:58:03;100206.16;;;5.24;100.00
14232;BME280;7200;52.194;9.900;2023-04-02T04:00:35;100177.63;;;5.10;100.00
14232;BME280;7200;52.194;9.900;2023-04-02T04:03:21;100186.22;;;5.17;100.00
14232;BME280;7200;52.194;9.900;2023-04-02T04:05:52;100214.69;;;5.34;100.00
14232;BME280;7200;52.194;9.900;2023-04-02T04:08:22;100219.06;;;5.33;100.00
14232;BME280;7200;52.194;9.900;2023-04-02T04:10:52;100229.41;;;5.39;100.00
14232;BME280;7200;52.194;9.900;2023-04-02T04:13:27;100187.16;;;5.14;100.00
14232;BME280;7200;52.194;9.900;2023-04-02T04:16:03;100200.13;;;5.19;100.00
14232;BME280;7200;52.194;9.900;2023-04-02T04:18:39;100172.66;;;4.95;100.00
14232;BME280;7200;52.194;9.900;2023-04-02T04:21:19;100209.81;;;5.12;100.00
14232;BME280;7200;52.194;9.900;2023-04-02T04:24:00;100210.50;;;5.23;100.00
14232;BME280;7200;52.194;9.900;2023-04-02T04:26:39;100244.16;;;5.43;100.00
14232;BME280;7200;52.194;9.900;2023-04-02T04:29:32;100222.59;;;5.29;100.00
14232;BME280;7200;52.194;9.900;2023-04-02T04:32:30;100223.63;;;5.22;100.00
14232;BME280;7200;52.194;9.900;2023-04-02T04:35:03;100222.81;;;5.18;100.00
14232;BME280;7200;52.194;9.900;2023-04-02T04:37:33;100229.84;;;5.15;100.00
14232;BME280;7200;52.194;9.900;2023-04-02T04:40:19;100219.59;;;5.02;100.00
14232;BME280;7200;52.194;9.900;2023-04-02T04:42:47;100224.91;;;4.98;100.00
14232;BME280;7200;52.194;9.900;2023-04-02T04:45:49;100252.56;;;5.11;100.00
14232;BME280;7200;52.194;9.900;2023-04-02T04:48:26;100268.94;;;5.24;100.00
14232;BME280;7200;52.194;9.900;2023-04-02T04:50:59;100280.97;;;5.31;100.00
14232;BME280;7200;52.194;9.900;2023-04-02T04:53:27;100288.09;;;5.23;100.00
14232;BME280;7200;52.194;9.900;2023-04-02T04:55:59;100298.25;;;5.41;100.00
14232;BME280;7200;52.194;9.900;2023-04-02T04:58:32;100266.19;;;5.30;100.00
14232;BME280;7200;52.194;9.900;2023-04-02T05:01:08;100287.84;;;5.38;100.00
14232;BME280;7200;52.194;9.900;2023-04-02T05:06:15;100320.03;;;5.43;100.00
14232;BME280;7200;52.194;9.900;2023-04-02T05:08:45;100304.56;;;5.30;100.00
14232;BME280;7200;52.194;9.900;2023-04-02T05:11:24;100301.84;;;5.36;100.00
14232;BME280;7200;52.194;9.900;2023-04-02T05:13:51;100298.53;;;5.26;100.00
14232;BME280;7200;52.194;9.900;2023-04-02T05:16:25;100340.66;;;5.60;100.00
14232;BME280;7200;52.194;9.900;2023-04-02T05:21:41;100316.31;;;5.57;100.00
14232;BME280;7200;52.194;9.900;2023-04-02T05:27:01;100318.38;;;5.39;100.00
14232;BME280;7200;52.194;9.900;2023-04-02T05:29:36;100342.72;;;5.43;100.00
14232;BME280;7200;52.194;9.900;2023-04-02T05:32:18;100355.53;;;5.58;100.00
14232;BME280;7200;52.194;9.900;2023-04-02T05:34:48;100320.06;;;5.42;100.00
14232;BME280;7200;52.194;9.900;2023-04-02T05:37:21;100327.31;;;5.26;100.00
14232;BME280;7200;52.194;9.900;2023-04-02T05:39:54;100347.81;;;5.51;100.00
14232;BME280;7200;52.194;9.900;2023-04-02T05:42:31;100314.06;;;5.35;100.00
14232;BME280;7200;52.194;9.900;2023-04-02T05:45:27;100364.34;;;5.54;100.00
14232;BME280;7200;52.194;9.900;2023-04-02T05:47:56;100340.88;;;5.48;100.00
14232;BME280;7200;52.194;9.900;2023-04-02T05:50:34;100393.78;;;5.67;100.00
14232;BME280;7200;52.194;9.900;2023-04-02T05:53:18;100385.25;;;5.56;100.00
14232;BME280;7200;52.194;9.900;2023-04-02T05:55:56;100341.78;;;5.47;100.00
14232;BME280;7200;52.194;9.900;2023-04-02T05:58:34;100386.84;;;5.63;100.00
14232;BME280;7200;52.194;9.900;2023-04-02T06:01:20;100335.81;;;5.39;100.00
14232;BME280;7200;52.194;9.900;2023-04-02T06:06:56;100406.97;;;5.59;100.00
14232;BME280;7200;52.194;9.900;2023-04-02T06:11:59;100438.16;;;5.75;100.00
14232;BME280;7200;52.194;9.900;2023-04-02T06:14:26;100399.06;;;5.64;100.00
14232;BME280;7200;52.194;9.900;2023-04-02T06:16:51;100382.44;;;5.65;100.00
14232;BME280;7200;52.194;9.900;2023-04-02T06:19:24;100367.00;;;5.51;100.00
14232;BME280;7200;52.194;9.900;2023-04-02T06:21:57;100352.97;;;5.54;100.00
14232;BME280;7200;52.194;9.900;2023-04-02T06:24:24;100381.63;;;5.63;100.00
14232;BME280;7200;52.194;9.900;2023-04-02T06:26:59;100429.19;;;5.90;100.00
14232;BME280;7200;52.194;9.900;2023-04-02T06:29:30;100384.28;;;5.61;100.00
14232;BME280;7200;52.194;9.900;2023-04-02T06:32:03;100389.56;;;5.58;100.00
14232;BME280;7200;52.194;9.900;2023-04-02T06:34:30;100373.22;;;5.44;100.00
14232;BME280;7200;52.194;9.900;2023-04-02T06:37:18;100422.59;;;5.65;100.00
14232;BME280;7200;52.194;9.900;2023-04-02T06:39:45;100426.75;;;5.77;100.00
14232;BME280;7200;52.194;9.900;2023-04-02T06:42:40;100417.97;;;5.81;100.00
14232;BME280;7200;52.194;9.900;2023-04-02T06:45:23;100448.41;;;5.87;100.00
14232;BME280;7200;52.194;9.900;2023-04-02T06:47:50;100448.34;;;5.92;100.00
14232;BME280;7200;52.194;9.900;2023-04-02T06:50:41;100430.09;;;5.87;100.00
14232;BME280;7200;52.194;9.900;2023-04-02T06:53:16;100464.94;;;5.91;100.00
14232;BME280;7200;52.194;9.900;2023-04-02T06:55:50;100484.81;;;6.06;100.00
14232;BME280;7200;52.194;9.900;2023-04-02T06:58:17;100494.22;;;6.16;100.00
14232;BME280;7200;52.194;9.900;2023-04-02T07:00:45;100465.50;;;6.10;100.00
14232;BME280;7200;52.194;9.900;2023-04-02T07:03:23;100434.41;;;5.90;100.00
14232;BME280;7200;52.194;9.900;2023-04-02T07:05:49;100435.28;;;5.90;100.00
14232;BME280;7200;52.194;9.900;2023-04-02T07:08:14;100436.13;;;5.91;100.00
14232;BME280;7200;52.194;9.900;2023-04-02T07:10:40;100448.50;;;5.82;100.00
14232;BME280;7200;52.194;9.900;2023-04-02T07:13:05;100447.53;;;5.88;100.00
14232;BME280;7200;52.194;9.900;2023-04-02T07:15:31;100450.06;;;5.93;100.00
14232;BME280;7200;52.194;9.900;2023-04-02T07:17:57;100453.75;;;5.82;100.00
14232;BME280;7200;52.194;9.900;2023-04-02T07:20:32;100472.00;;;5.85;100.00
14232;BME280;7200;52.194;9.900;2023-04-02T07:22:57;100448.56;;;5.76;100.00
14232;BME280;7200;52.194;9.900;2023-04-02T07:25:24;100530.28;;;6.00;100.00
14232;BME280;7200;52.194;9.900;2023-04-02T07:27:50;100505.91;;;5.93;100.00
14232;BME280;7200;52.194;9.900;2023-04-02T07:30:16;100518.84;;;6.06;100.00
14232;BME280;7200;52.194;9.900;2023-04-02T07:32:41;100554.66;;;6.07;100.00
14232;BME280;7200;52.194;9.900;2023-04-02T07:35:07;100573.59;;;6.22;100.00
14232;BME280;7200;52.194;9.900;2023-04-02T07:37:34;100552.63;;;6.22;100.00
14232;BME280;7200;52.194;9.900;2023-04-02T07:40:00;100554.56;;;6.11;100.00
14232;BME280;7200;52.194;9.900;2023-04-02T07:42:25;100561.69;;;6.03;100.00
14232;BME280;7200;52.194;9.900;2023-04-02T07:44:50;100575.50;;;6.13;100.00
14232;BME280;7200;52.194;9.900;2023-04-02T07:47:15;100550.41;;;5.93;100.00
14232;BME280;7200;52.194;9.900;2023-04-02T07:49:41;100580.16;;;5.89;100.00
14232;BME280;7200;52.194;9.900;2023-04-02T07:52:06;100649.53;;;6.24;100.00
14232;BME280;7200;52.194;9.900;2023-04-02T07:54:32;100663.41;;;6.31;100.00
14232;BME280;7200;52.194;9.900;2023-04-02T07:56:57;100617.25;;;6.23;100.00
14232;BME280;7200;52.194;9.900;2023-04-02T07:59:22;100613.69;;;6.28;100.00
14232;BME280;7200;52.194;9.900;2023-04-02T08:01:47;100610.16;;;6.27;100.00
14232;BME280;7200;52.194;9.900;2023-04-02T08:04:18;100588.25;;;6.33;100.00
14232;BME280;7200;52.194;9.900;2023-04-02T08:06:45;100575.41;;;6.17;100.00
14232;BME280;7200;52.194;9.900;2023-04-02T08:09:12;100642.56;;;6.21;100.00
14232;BME280;7200;52.194;9.900;2023-04-02T08:11:37;100610.66;;;5.96;100.00
14232;BME280;7200;52.194;9.900;2023-04-02T08:14:03;100658.47;;;6.12;100.00
14232;BME280;7200;52.194;9.900;2023-04-02T08:16:42;100686.09;;;6.33;100.00
14232;BME280;7200;52.194;9.900;2023-04-02T08:19:08;100777.25;;;6.72;100.00
14232;BME280;7200;52.194;9.900;2023-04-02T08:21:33;100683.13;;;6.55;100.00
14232;BME280;7200;52.194;9.900;2023-04-02T08:23:58;100692.47;;;6.71;100.00
14232;BME280;7200;52.194;9.900;2023-04-02T08:26:23;100643.06;;;6.48;100.00
14232;BME280;7200;52.194;9.900;2023-04-02T08:28:49;100650.66;;;6.63;100.00
14232;BME280;7200;52.194;9.900;2023-04-02T08:31:14;100615.88;;;6.54;100.00
14232;BME280;7200;52.194;9.900;2023-04-02T08:33:39;100649.16;;;6.49;100.00
14232;BME280;7200;52.194;9.900;2023-04-02T08:36:05;100670.16;;;6.46;100.00
14232;BME280;7200;52.194;9.900;2023-04-02T08:38:30;100686.81;;;6.43;100.00
14232;BME280;7200;52.194;9.900;2023-04-02T08:40:58;100722.84;;;6.86;100.00
14232;BME280;7200;52.194;9.900;2023-04-02T08:49:02;100676.91;;;6.62;100.00
14232;BME280;7200;52.194;9.900;2023-04-02T08:51:31;100692.47;;;6.73;100.00
14232;BME280;7200;52.194;9.900;2023-04-02T08:54:01;100664.59;;;6.66;100.00
14232;BME280;7200;52.194;9.900;2023-04-02T08:56:44;100664.59;;;6.66;100.00
14232;BME280;7200;52.194;9.900;2023-04-02T08:59:28;100723.69;;;6.88;100.00
14232;BME280;7200;52.194;9.900;2023-04-02T09:02:22;100737.72;;;6.86;100.00
14232;BME280;7200;52.194;9.900;2023-04-02T09:04:55;100749.09;;;6.85;100.00
14232;BME280;7200;52.194;9.900;2023-04-02T09:07:21;100755.16;;;6.87;100.00
14232;BME280;7200;52.194;9.900;2023-04-02T09:09:47;100741.38;;;6.74;100.00
14232;BME280;7200;52.194;9.900;2023-04-02T09:12:27;100762.94;;;6.93;100.00
14232;BME280;7200;52.194;9.900;2023-04-02T09:15:03;100713.38;;;6.76;100.00
14232;BME280;7200;52.194;9.900;2023-04-02T09:17:30;100708.91;;;6.82;100.00
14232;BME280;7200;52.194;9.900;2023-04-02T09:20:00;100720.25;;;6.83;100.00
14232;BME280;7200;52.194;9.900;2023-04-02T09:22:30;100714.00;;;6.92;100.00
14232;BME280;7200;52.194;9.900;2023-04-02T09:24:59;100755.56;;;7.15;100.00
14232;BME280;7200;52.194;9.900;2023-04-02T09:27:27;100729.47;;;7.07;100.00
14232;BME280;7200;52.194;9.900;2023-04-02T09:32:50;100756.69;;;7.00;100.00
14232;BME280;7200;52.194;9.900;2023-04-02T09:35:22;100783.50;;;7.17;100.00
14232;BME280;7200;52.194;9.900;2023-04-02T09:43:27;100745.19;;;7.10;100.00
14232;BME280;7200;52.194;9.900;2023-04-02T09:48:36;100765.06;;;7.24;100.00
14232;BME280;7200;52.194;9.900;2023-04-02T09:51:04;100732.09;;;7.07;100.00
14232;BME280;7200;52.194;9.900;2023-04-02T09:53:46;100742.63;;;7.04;100.00
14232;BME280;7200;52.194;9.900;2023-04-02T09:56:14;100755.69;;;7.09;100.00
14232;BME280;7200;52.194;9.900;2023-04-02T09:58:42;100737.47;;;6.99;100.00
14232;BME280;7200;52.194;9.900;2023-04-02T10:01:25;100766.22;;;7.07;100.00
14232;BME280;7200;52.194;9.900;2023-04-02T10:03:52;100802.63;;;7.27;100.00
14232;BME280;7200;52.194;9.900;2023-04-02T10:06:17;100857.63;;;7.33;100.00
14232;BME280;7200;52.194;9.900;2023-04-02T10:08:43;100861.06;;;7.38;100.00
14232;BME280;7200;52.194;9.900;2023-04-02T10:11:13;100833.28;;;7.24;100.00
14232;BME280;7200;52.194;9.900;2023-04-02T10:16:42;100858.88;;;7.64;100.00
14232;BME280;7200;52.194;9.900;2023-04-02T10:21:40;100824.75;;;7.62;100.00
14232;BME280;7200;52.194;9.900;2023-04-02T10:24:11;100787.19;;;7.58;100.00
14232;BME280;7200;52.194;9.900;2023-04-02T10:32:19;100736.78;;;7.39;100.00
14232;BME280;7200;52.194;9.900;2023-04-02T10:40:35;100756.34;;;7.68;100.00
14232;BME280;7200;52.194;9.900;2023-04-02T10:45:55;100754.47;;;7.76;100.00
14232;BME280;7200;52.194;9.900;2023-04-02T10:51:40;100833.19;;;8.25;100.00
14232;BME280;7200;52.194;9.900;2023-04-02T10:56:52;100754.56;;;8.14;100.00
14232;BME280;7200;52.194;9.900;2023-04-02T10:59:25;100801.78;;;8.18;100.00
14232;BME280;7200;52.194;9.900;2023-04-02T11:01:54;100777.63;;;7.99;100.00
14232;BME280;7200;52.194;9.900;2023-04-02T11:04:32;100801.06;;;8.10;100.00
14232;BME280;7200;52.194;9.900;2023-04-02T11:07:04;100849.25;;;8.09;100.00
14232;BME280;7200;52.194;9.900;2023-04-02T11:09:36;100851.22;;;8.45;100.00
14232;BME280;7200;52.194;9.900;2023-04-02T11:12:03;100749.06;;;8.25;100.00
14232;BME280;7200;52.194;9.900;2023-04-02T11:14:31;100715.31;;;8.06;100.00
14232;BME280;7200;52.194;9.900;2023-04-02T11:16:59;100749.44;;;8.08;100.00
14232;BME280;7200;52.194;9.900;2023-04-02T11:19:28;100739.34;;;8.28;100.00
14232;BME280;7200;52.194;9.900;2023-04-02T11:21:59;100710.31;;;8.34;100.00
14232;BME280;7200;52.194;9.900;2023-04-02T11:25:12;100733.47;;;8.57;100.00
14232;BME280;7200;52.194;9.900;2023-04-02T11:27:27;100831.63;;;8.60;100.00
14232;BME280;7200;52.194;9.900;2023-04-02T11:32:43;100799.25;;;8.95;100.00
14232;BME280;7200;52.194;9.900;2023-04-02T11:45:59;100845.94;;;9.23;100.00
14232;BME280;7200;52.194;9.900;2023-04-02T11:48:30;100877.81;;;9.12;100.00
14232;BME280;7200;52.194;9.900;2023-04-02T11:50:58;100893.44;;;9.55;100.00
14232;BME280;7200;52.194;9.900;2023-04-02T11:53:29;100812.72;;;9.53;100.00
14232;BME280;7200;52.194;9.900;2023-04-02T12:06:45;100768.19;;;9.44;100.00
14232;BME280;7200;52.194;9.900;2023-04-02T12:09:29;100787.22;;;9.55;100.00
14232;BME280;7200;52.194;9.900;2023-04-02T12:12:17;100764.41;;;9.54;100.00
14232;BME280;7200;52.194;9.900;2023-04-02T12:14:55;100793.53;;;9.81;100.00
14232;BME280;7200;52.194;9.900;2023-04-02T12:17:33;100833.56;;;9.95;100.00
14232;BME280;7200;52.194;9.900;2023-04-02T12:20:03;100876.00;;;9.84;100.00
14232;BME280;7200;52.194;9.900;2023-04-02T12:22:38;100820.34;;;9.97;100.00
14232;BME280;7200;52.194;9.900;2023-04-02T12:27:46;100727.09;;;9.38;100.00
14232;BME280;7200;52.194;9.900;2023-04-02T12:30:20;100724.16;;;9.16;100.00
14232;BME280;7200;52.194;9.900;2023-04-02T12:32:46;100742.59;;;8.80;100.00
14232;BME280;7200;52.194;9.900;2023-04-02T12:35:34;100802.81;;;8.92;100.00
14232;BME280;7200;52.194;9.900;2023-04-02T12:38:00;100783.81;;;8.80;100.00
14232;BME280;7200;52.194;9.900;2023-04-02T12:40:27;100924.81;;;8.88;100.00
14232;BME280;7200;52.194;9.900;2023-04-02T12:42:52;100845.22;;;8.79;100.00
14232;BME280;7200;52.194;9.900;2023-04-02T12:45:36;100832.63;;;8.93;100.00
14232;BME280;7200;52.194;9.900;2023-04-02T12:48:03;100845.78;;;8.93;100.00
14232;BME280;7200;52.194;9.900;2023-04-02T12:50:31;100964.59;;;9.15;100.00
14232;BME280;7200;52.194;9.900;2023-04-02T12:52:57;100864.56;;;9.15;100.00
14232;BME280;7200;52.194;9.900;2023-04-02T12:55:25;100801.34;;;9.16;100.00
14232;BME280;7200;52.194;9.900;2023-04-02T12:57:55;100888.22;;;9.52;100.00
14232;BME280;7200;52.194;9.900;2023-04-02T13:05:40;100835.41;;;9.91;100.00
14232;BME280;7200;52.194;9.900;2023-04-02T13:08:22;100922.19;;;9.99;100.00
14232;BME280;7200;52.194;9.900;2023-04-02T13:11:06;100819.16;;;10.07;100.00
14232;BME280;7200;52.194;9.900;2023-04-02T13:13:33;100921.56;;;10.22;100.00
14232;BME280;7200;52.194;9.900;2023-04-02T13:18:36;100919.03;;;10.52;100.00
14232;BME280;7200;52.194;9.900;2023-04-02T13:21:25;100869.31;;;10.38;100.00
14232;BME280;7200;52.194;9.900;2023-04-02T13:23:53;100772.91;;;10.26;98.68
14232;BME280;7200;52.194;9.900;2023-04-02T13:29:01;100974.16;;;10.28;100.00
14232;BME280;7200;52.194;9.900;2023-04-02T13:31:27;101009.50;;;10.56;100.00
14232;BME280;7200;52.194;9.900;2023-04-02T13:33:53;100951.03;;;10.40;100.00
14232;BME280;7200;52.194;9.900;2023-04-02T13:36:18;100826.84;;;10.47;100.00
14232;BME280;7200;52.194;9.900;2023-04-02T13:38:44;100753.38;;;10.33;96.90
14232;BME280;7200;52.194;9.900;2023-04-02T13:41:27;100835.88;;;10.68;97.42
14232;BME280;7200;52.194;9.900;2023-04-02T13:43:54;101035.78;;;10.91;100.00
14232;BME280;7200;52.194;9.900;2023-04-02T13:46:22;101143.44;;;11.46;100.00
14232;BME280;7200;52.194;9.900;2023-04-02T13:48:53;101064.53;;;11.62;100.00
14232;BME280;7200;52.194;9.900;2023-04-02T13:51:26;101033.47;;;11.70;100.00
14232;BME280;7200;52.194;9.900;2023-04-02T13:53:56;100853.28;;;11.57;95.86
14232;BME280;7200;52.194;9.900;2023-04-02T13:56:22;100861.25;;;11.56;94.71
14232;BME280;7200;52.194;9.900;2023-04-02T13:58:49;100864.72;;;11.58;95.30
14232;BME280;7200;52.194;9.900;2023-04-02T14:01:15;100768.13;;;11.22;93.88
14232;BME280;7200;52.194;9.900;2023-04-02T14:03:41;100800.59;;;11.26;92.94
14232;BME280;7200;52.194;9.900;2023-04-02T14:09:01;100786.06;;;10.58;96.01
14232;BME280;7200;52.194;9.900;2023-04-02T14:23:35;100829.91;;;10.62;94.18
14232;BME280;7200;52.194;9.900;2023-04-02T14:26:16;100746.97;;;10.42;92.04
14232;BME280;7200;52.194;9.900;2023-04-02T14:34:25;100874.22;;;10.80;93.54
14232;BME280;7200;52.194;9.900;2023-04-02T14:40:10;100886.69;;;10.75;94.83
14232;BME280;7200;52.194;9.900;2023-04-02T14:42:58;100864.41;;;10.85;92.79
14232;BME280;7200;52.194;9.900;2023-04-02T14:45:47;100945.88;;;10.96;94.76
14232;BME280;7200;52.194;9.900;2023-04-02T14:48:26;100910.19;;;11.41;90.38
14232;BME280;7200;52.194;9.900;2023-04-02T14:54:06;100786.75;;;10.93;89.16
14232;BME280;7200;52.194;9.900;2023-04-02T14:56:38;100827.59;;;10.79;90.51
14232;BME280;7200;52.194;9.900;2023-04-02T14:59:26;100897.13;;;10.80;93.53
14232;BME280;7200;52.194;9.900;2023-04-02T15:02:00;100832.44;;;10.66;91.31
14232;BME280;7200;52.194;9.900;2023-04-02T15:04:37;100839.03;;;10.51;92.02
14232;BME280;7200;52.194;9.900;2023-04-02T15:07:13;100819.25;;;10.37;91.21
14232;BME280;7200;52.194;9.900;2023-04-02T15:09:46;100883.88;;;10.51;93.28
14232;BME280;7200;52.194;9.900;2023-04-02T15:12:29;100920.84;;;10.81;92.92
14232;BME280;7200;52.194;9.900;2023-04-02T15:17:40;100878.13;;;10.97;90.68
14232;BME280;7200;52.194;9.900;2023-04-02T15:20:13;100830.13;;;10.84;88.31
14232;BME280;7200;52.194;9.900;2023-04-02T15:23:06;100768.56;;;10.55;87.54
14232;BME280;7200;52.194;9.900;2023-04-02T15:25:47;100837.41;;;10.47;90.16
14232;BME280;7200;52.194;9.900;2023-04-02T15:30:52;101042.72;;;10.96;95.57
14232;BME280;7200;52.194;9.900;2023-04-02T15:38:43;100869.41;;;12.01;82.04
14232;BME280;7200;52.194;9.900;2023-04-02T15:41:22;100910.94;;;11.44;88.25
14232;BME280;7200;52.194;9.900;2023-04-02T15:44:14;100968.78;;;11.25;91.73
14232;BME280;7200;52.194;9.900;2023-04-02T15:47:06;101030.81;;;11.12;95.60
14232;BME280;7200;52.194;9.900;2023-04-02T16:01:10;100822.28;;;10.81;87.05
14232;BME280;7200;52.194;9.900;2023-04-02T16:03:53;100859.91;;;10.89;86.39
14232;BME280;7200;52.194;9.900;2023-04-02T16:06:29;101116.84;;;12.10;87.16
14232;BME280;7200;52.194;9.900;2023-04-02T16:11:30;100886.34;;;11.96;81.52
14232;BME280;7200;52.194;9.900;2023-04-02T16:14:09;100891.63;;;11.69;82.65
14232;BME280;7200;52.194;9.900;2023-04-02T16:16:41;100973.94;;;11.00;91.09
14232;BME280;7200;52.194;9.900;2023-04-02T16:19:33;100991.16;;;11.14;89.59